Portada
METAR-TAF:

METAR-TAF

Aeroports :

Fort-de-France, Martinica

latitud: 14-36N, longitud: 061-00W, altitud: 5 m

Observació

L'informe es va fer fa 29 minuts, a les 22:30 UTC
Vent 4 kt del Est
Temperatura 24°C
Humitat 78%
Pressió 1015 hPa
Visibilitat 10 km o més
sense núvols per sota de 1500 mi sense presència de cumulonimbus.

METAR: TFFF 012230Z AUTO 09004KT CAVOK 24/20 Q1015 NOSIG

Hora: 18:59 (22:59 UTC)

Pronòstic

L'informe es va fer fa 5 hores i 59 minuts, a les 17:00 UTC
Pronòstic vàlid del 01 a les 18 UTC al 02 a les 18 UTC
Vent 8 kt del Est/Nord-Est
Visibilitat 10 km o més
Escasses núvols a una alçada de 3500 ft
Probabilitat 30% :
Temporalment
l' 02 a les 06 UTC al 02 a les 16 UTC
Visibilitat: 4000 m
Núvols disperses a una alçada de 2000 ft, Cumulus congestus.
xàfecs de pluja

TAF: TFFF 011700Z 0118/0218 07008KT 9999 FEW035 PROB30 TEMPO 0206/0216 4000 SHRA SCT020TCU

Observacions i pronòstics meteorològics de més de 4000 aeroports (METAR i TAF).

Les estacions disponibles són els punts grocs i vermells al mapa.

Posi el ratolí al punt desitjat per veure el nom de l'estació.

Feu clic per veure les observacions i els pronòstics meteorològics.

Per canviar el mapa: feu clic els botons verds amb una creu de color negre per apropar; al botó verd amb un guió per allunyar la imatge; o en les fletxes verdes per a mapes adjacents.


METAR-TAF: